sensor_id;sensor_type;location;lat;lon;timestamp;pressure;altitude;pressure_sealevel;temperature;humidity
58785;BME280;44557;51.862;19.378;2022-10-29T00:00:04;99723.34;;;13.67;76.55
58785;BME280;44557;51.862;19.378;2022-10-29T00:01:26;99727.20;;;13.65;76.78
58785;BME280;44557;51.862;19.378;2022-10-29T00:02:27;99726.59;;;13.67;76.42
58785;BME280;44557;51.862;19.378;2022-10-29T00:03:29;99720.05;;;13.58;76.64
58785;BME280;44557;51.862;19.378;2022-10-29T00:04:31;99722.57;;;13.64;76.64
58785;BME280;44557;51.862;19.378;2022-10-29T00:05:33;99719.80;;;13.68;76.40
58785;BME280;44557;51.862;19.378;2022-10-29T00:06:35;99718.90;;;13.60;76.64
58785;BME280;44557;51.862;19.378;2022-10-29T00:07:36;99715.27;;;13.54;76.75
58785;BME280;44557;51.862;19.378;2022-10-29T00:08:39;99714.23;;;13.60;76.46
58785;BME280;44557;51.862;19.378;2022-10-29T00:09:41;99713.20;;;13.50;76.60
58785;BME280;44557;51.862;19.378;2022-10-29T00:10:43;99711.82;;;13.43;77.12
58785;BME280;44557;51.862;19.378;2022-10-29T00:11:44;99707.52;;;13.42;77.07
58785;BME280;44557;51.862;19.378;2022-10-29T00:12:46;99707.27;;;13.44;77.14
58785;BME280;44557;51.862;19.378;2022-10-29T00:13:52;99710.02;;;13.49;76.68
58785;BME280;44557;51.862;19.378;2022-10-29T00:14:54;99709.10;;;13.42;77.08
58785;BME280;44557;51.862;19.378;2022-10-29T00:15:55;99709.05;;;13.46;76.81
58785;BME280;44557;51.862;19.378;2022-10-29T00:16:57;99711.02;;;13.45;76.73
58785;BME280;44557;51.862;19.378;2022-10-29T00:17:58;99710.41;;;13.46;76.84
58785;BME280;44557;51.862;19.378;2022-10-29T00:19:00;99709.89;;;13.41;77.04
58785;BME280;44557;51.862;19.378;2022-10-29T00:20:02;99711.84;;;13.46;76.85
58785;BME280;44557;51.862;19.378;2022-10-29T00:21:07;99713.15;;;13.43;76.78
58785;BME280;44557;51.862;19.378;2022-10-29T00:22:09;99711.67;;;13.40;77.00
58785;BME280;44557;51.862;19.378;2022-10-29T00:23:10;99709.84;;;13.39;77.02
58785;BME280;44557;51.862;19.378;2022-10-29T00:24:12;99710.25;;;13.40;77.00
58785;BME280;44557;51.862;19.378;2022-10-29T00:25:13;99709.02;;;13.50;76.44
58785;BME280;44557;51.862;19.378;2022-10-29T00:26:16;99715.33;;;13.43;76.56
58785;BME280;44557;51.862;19.378;2022-10-29T00:27:18;99714.02;;;13.42;76.72
58785;BME280;44557;51.862;19.378;2022-10-29T00:28:20;99713.23;;;13.45;76.67
58785;BME280;44557;51.862;19.378;2022-10-29T00:29:21;99719.31;;;13.54;76.35
58785;BME280;44557;51.862;19.378;2022-10-29T00:30:23;99718.92;;;13.55;76.11
58785;BME280;44557;51.862;19.378;2022-10-29T00:31:24;99715.64;;;13.56;76.21
58785;BME280;44557;51.862;19.378;2022-10-29T00:32:26;99717.00;;;13.50;76.24
58785;BME280;44557;51.862;19.378;2022-10-29T00:33:28;99712.76;;;13.45;76.50
58785;BME280;44557;51.862;19.378;2022-10-29T00:34:29;99712.34;;;13.44;76.41
58785;BME280;44557;51.862;19.378;2022-10-29T00:35:31;99711.21;;;13.43;76.49
58785;BME280;44557;51.862;19.378;2022-10-29T00:36:32;99713.35;;;13.47;76.33
58785;BME280;44557;51.862;19.378;2022-10-29T00:37:34;99713.74;;;13.46;76.42
58785;BME280;44557;51.862;19.378;2022-10-29T00:38:36;99715.69;;;13.43;76.41
58785;BME280;44557;51.862;19.378;2022-10-29T00:39:37;99716.08;;;13.48;76.11
58785;BME280;44557;51.862;19.378;2022-10-29T00:40:39;99716.46;;;13.51;75.96
58785;BME280;44557;51.862;19.378;2022-10-29T00:41:41;99717.08;;;13.41;76.42
58785;BME280;44557;51.862;19.378;2022-10-29T00:42:42;99721.08;;;13.43;76.29
58785;BME280;44557;51.862;19.378;2022-10-29T00:43:52;99721.50;;;13.50;76.07
58785;BME280;44557;51.862;19.378;2022-10-29T00:45:19;99726.77;;;13.49;76.13
58785;BME280;44557;51.862;19.378;2022-10-29T00:46:30;99720.33;;;13.51;76.10
58785;BME280;44557;51.862;19.378;2022-10-29T00:47:35;99721.94;;;13.43;76.25
58785;BME280;44557;51.862;19.378;2022-10-29T00:48:49;99719.52;;;13.40;76.55
58785;BME280;44557;51.862;19.378;2022-10-29T00:49:56;99721.04;;;13.41;76.48
58785;BME280;44557;51.862;19.378;2022-10-29T00:51:02;99719.25;;;13.52;75.95
58785;BME280;44557;51.862;19.378;2022-10-29T00:52:06;99719.27;;;13.49;75.95
58785;BME280;44557;51.862;19.378;2022-10-29T00:53:08;99715.62;;;13.46;75.99
58785;BME280;44557;51.862;19.378;2022-10-29T00:54:13;99717.17;;;13.47;76.14
58785;BME280;44557;51.862;19.378;2022-10-29T00:55:16;99712.41;;;13.45;76.19
58785;BME280;44557;51.862;19.378;2022-10-29T00:56:19;99710.46;;;13.45;76.00
58785;BME280;44557;51.862;19.378;2022-10-29T00:57:25;99713.00;;;13.49;76.02
58785;BME280;44557;51.862;19.378;2022-10-29T00:58:28;99716.80;;;13.52;75.78
58785;BME280;44557;51.862;19.378;2022-10-29T00:59:30;99712.05;;;13.55;75.60
58785;BME280;44557;51.862;19.378;2022-10-29T01:00:32;99710.88;;;13.49;75.75
58785;BME280;44557;51.862;19.378;2022-10-29T01:01:34;99706.71;;;13.44;76.06
58785;BME280;44557;51.862;19.378;2022-10-29T01:02:37;99707.20;;;13.38;76.20
58785;BME280;44557;51.862;19.378;2022-10-29T01:03:38;99706.66;;;13.42;76.22
58785;BME280;44557;51.862;19.378;2022-10-29T01:04:40;99706.34;;;13.42;76.22
58785;BME280;44557;51.862;19.378;2022-10-29T01:05:43;99706.65;;;13.32;76.40
58785;BME280;44557;51.862;19.378;2022-10-29T01:06:46;99706.73;;;13.32;76.61
58785;BME280;44557;51.862;19.378;2022-10-29T01:07:47;99706.85;;;13.34;76.32
58785;BME280;44557;51.862;19.378;2022-10-29T01:08:49;99702.65;;;13.31;76.65
58785;BME280;44557;51.862;19.378;2022-10-29T01:09:51;99702.29;;;13.26;76.70
58785;BME280;44557;51.862;19.378;2022-10-29T01:15:03;99699.32;;;13.33;76.60
58785;BME280;44557;51.862;19.378;2022-10-29T01:17:25;99697.15;;;13.29;76.57
58785;BME280;44557;51.862;19.378;2022-10-29T01:20:16;99700.40;;;13.26;76.81
58785;BME280;44557;51.862;19.378;2022-10-29T01:21:33;99699.77;;;13.23;76.76
58785;BME280;44557;51.862;19.378;2022-10-29T01:22:46;99699.48;;;13.25;76.90
58785;BME280;44557;51.862;19.378;2022-10-29T01:30:07;99692.52;;;13.06;77.49
58785;BME280;44557;51.862;19.378;2022-10-29T01:32:30;99688.46;;;13.08;77.37
58785;BME280;44557;51.862;19.378;2022-10-29T01:34:03;99683.42;;;13.06;77.40
58785;BME280;44557;51.862;19.378;2022-10-29T01:36:48;99688.36;;;13.08;77.31
58785;BME280;44557;51.862;19.378;2022-10-29T01:38:23;99687.66;;;13.11;77.39
58785;BME280;44557;51.862;19.378;2022-10-29T01:42:09;99686.02;;;13.09;77.43
58785;BME280;44557;51.862;19.378;2022-10-29T01:43:26;99685.55;;;13.01;77.41
58785;BME280;44557;51.862;19.378;2022-10-29T01:44:47;99683.14;;;13.02;77.66
58785;BME280;44557;51.862;19.378;2022-10-29T01:46:04;99685.94;;;12.92;77.99
58785;BME280;44557;51.862;19.378;2022-10-29T01:47:14;99688.05;;;12.97;77.71
58785;BME280;44557;51.862;19.378;2022-10-29T01:48:31;99689.47;;;12.94;77.76
58785;BME280;44557;51.862;19.378;2022-10-29T01:49:40;99683.23;;;12.97;77.88
58785;BME280;44557;51.862;19.378;2022-10-29T01:50:47;99682.40;;;12.93;77.93
58785;BME280;44557;51.862;19.378;2022-10-29T01:51:51;99685.48;;;12.96;77.85
58785;BME280;44557;51.862;19.378;2022-10-29T01:52:53;99681.39;;;12.96;77.77
58785;BME280;44557;51.862;19.378;2022-10-29T01:53:57;99685.78;;;12.98;77.69
58785;BME280;44557;51.862;19.378;2022-10-29T01:55:01;99683.36;;;12.96;77.61
58785;BME280;44557;51.862;19.378;2022-10-29T01:56:03;99679.21;;;13.00;77.54
58785;BME280;44557;51.862;19.378;2022-10-29T01:57:28;99680.91;;;12.93;77.74
58785;BME280;44557;51.862;19.378;2022-10-29T01:58:31;99680.21;;;12.93;77.66
58785;BME280;44557;51.862;19.378;2022-10-29T01:59:35;99677.06;;;12.88;78.06
58785;BME280;44557;51.862;19.378;2022-10-29T02:00:49;99676.20;;;12.97;77.75
58785;BME280;44557;51.862;19.378;2022-10-29T02:02:11;99679.45;;;12.92;77.75
58785;BME280;44557;51.862;19.378;2022-10-29T02:03:41;99676.77;;;12.88;78.00
58785;BME280;44557;51.862;19.378;2022-10-29T02:07:30;99671.59;;;12.87;78.01
58785;BME280;44557;51.862;19.378;2022-10-29T02:10:14;99663.20;;;12.93;77.74
58785;BME280;44557;51.862;19.378;2022-10-29T02:12:45;99666.48;;;12.91;77.64
58785;BME280;44557;51.862;19.378;2022-10-29T02:14:05;99663.55;;;12.88;77.90
58785;BME280;44557;51.862;19.378;2022-10-29T02:15:11;99662.23;;;12.80;78.07
58785;BME280;44557;51.862;19.378;2022-10-29T02:16:15;99661.01;;;12.84;78.16
58785;BME280;44557;51.862;19.378;2022-10-29T02:17:17;99665.38;;;12.91;77.77
58785;BME280;44557;51.862;19.378;2022-10-29T02:18:19;99661.88;;;12.87;77.99
58785;BME280;44557;51.862;19.378;2022-10-29T02:19:21;99661.90;;;12.85;77.93
58785;BME280;44557;51.862;19.378;2022-10-29T02:20:22;99652.06;;;12.83;78.05
58785;BME280;44557;51.862;19.378;2022-10-29T02:21:24;99651.64;;;12.77;78.00
58785;BME280;44557;51.862;19.378;2022-10-29T02:22:26;99647.48;;;12.80;78.41
58785;BME280;44557;51.862;19.378;2022-10-29T02:23:27;99646.89;;;12.84;77.78
58785;BME280;44557;51.862;19.378;2022-10-29T02:24:29;99639.69;;;12.84;77.97
58785;BME280;44557;51.862;19.378;2022-10-29T02:25:30;99642.46;;;12.85;78.06
58785;BME280;44557;51.862;19.378;2022-10-29T02:26:32;99638.48;;;12.87;77.90
58785;BME280;44557;51.862;19.378;2022-10-29T02:27:33;99636.10;;;12.83;78.26
58785;BME280;44557;51.862;19.378;2022-10-29T02:28:35;99637.71;;;12.81;78.21
58785;BME280;44557;51.862;19.378;2022-10-29T02:29:36;99639.16;;;12.80;78.25
58785;BME280;44557;51.862;19.378;2022-10-29T02:30:38;99643.82;;;12.74;78.55
58785;BME280;44557;51.862;19.378;2022-10-29T02:31:40;99648.70;;;12.82;78.27
58785;BME280;44557;51.862;19.378;2022-10-29T02:32:42;99649.45;;;12.80;78.46
58785;BME280;44557;51.862;19.378;2022-10-29T02:33:43;99645.63;;;12.79;78.26
58785;BME280;44557;51.862;19.378;2022-10-29T02:34:45;99647.38;;;12.89;78.04
58785;BME280;44557;51.862;19.378;2022-10-29T02:35:46;99644.79;;;12.86;77.83
58785;BME280;44557;51.862;19.378;2022-10-29T02:36:48;99644.98;;;12.84;77.87
58785;BME280;44557;51.862;19.378;2022-10-29T02:37:49;99641.42;;;12.84;78.09
58785;BME280;44557;51.862;19.378;2022-10-29T02:38:51;99638.90;;;12.81;78.13
58785;BME280;44557;51.862;19.378;2022-10-29T02:39:52;99635.95;;;12.84;78.12
58785;BME280;44557;51.862;19.378;2022-10-29T02:40:54;99637.63;;;12.78;78.14
58785;BME280;44557;51.862;19.378;2022-10-29T02:41:55;99639.10;;;12.77;78.29
58785;BME280;44557;51.862;19.378;2022-10-29T02:42:57;99630.09;;;12.78;78.29
58785;BME280;44557;51.862;19.378;2022-10-29T02:43:58;99635.09;;;12.75;78.46
58785;BME280;44557;51.862;19.378;2022-10-29T02:45:00;99636.65;;;12.80;78.05
58785;BME280;44557;51.862;19.378;2022-10-29T02:46:14;99634.31;;;12.78;78.12
58785;BME280;44557;51.862;19.378;2022-10-29T02:47:16;99633.37;;;12.82;78.21
58785;BME280;44557;51.862;19.378;2022-10-29T02:48:18;99634.48;;;12.79;78.19
58785;BME280;44557;51.862;19.378;2022-10-29T02:49:19;99630.07;;;12.79;78.23
58785;BME280;44557;51.862;19.378;2022-10-29T02:50:21;99628.10;;;12.76;78.24
58785;BME280;44557;51.862;19.378;2022-10-29T02:51:22;99634.63;;;12.81;77.97
58785;BME280;44557;51.862;19.378;2022-10-29T02:52:24;99631.04;;;12.80;78.37
58785;BME280;44557;51.862;19.378;2022-10-29T02:53:25;99633.96;;;12.77;78.34
58785;BME280;44557;51.862;19.378;2022-10-29T02:54:27;99638.16;;;12.75;78.25
58785;BME280;44557;51.862;19.378;2022-10-29T02:55:28;99640.33;;;12.71;78.63
58785;BME280;44557;51.862;19.378;2022-10-29T02:56:30;99645.07;;;12.76;78.55
58785;BME280;44557;51.862;19.378;2022-10-29T02:57:31;99639.37;;;12.70;78.60
58785;BME280;44557;51.862;19.378;2022-10-29T02:58:33;99637.73;;;12.68;78.81
58785;BME280;44557;51.862;19.378;2022-10-29T02:59:34;99641.37;;;12.71;78.63
58785;BME280;44557;51.862;19.378;2022-10-29T03:00:36;99642.63;;;12.74;78.50
58785;BME280;44557;51.862;19.378;2022-10-29T03:01:37;99644.12;;;12.74;78.65
58785;BME280;44557;51.862;19.378;2022-10-29T03:02:39;99645.80;;;12.76;78.57
58785;BME280;44557;51.862;19.378;2022-10-29T03:03:41;99644.70;;;12.77;78.38
58785;BME280;44557;51.862;19.378;2022-10-29T03:04:42;99651.27;;;12.86;78.20
58785;BME280;44557;51.862;19.378;2022-10-29T03:05:45;99646.98;;;12.82;78.18
58785;BME280;44557;51.862;19.378;2022-10-29T03:06:46;99648.14;;;12.85;78.23
58785;BME280;44557;51.862;19.378;2022-10-29T03:07:47;99649.22;;;12.89;77.98
58785;BME280;44557;51.862;19.378;2022-10-29T03:08:49;99650.84;;;12.88;77.85
58785;BME280;44557;51.862;19.378;2022-10-29T03:09:50;99657.56;;;12.92;77.84
58785;BME280;44557;51.862;19.378;2022-10-29T03:10:53;99654.32;;;12.95;77.86
58785;BME280;44557;51.862;19.378;2022-10-29T03:11:55;99657.84;;;12.96;77.78
58785;BME280;44557;51.862;19.378;2022-10-29T03:13:00;99656.09;;;12.96;77.43
58785;BME280;44557;51.862;19.378;2022-10-29T03:14:01;99657.86;;;13.00;77.35
58785;BME280;44557;51.862;19.378;2022-10-29T03:15:03;99653.77;;;12.97;77.54
58785;BME280;44557;51.862;19.378;2022-10-29T03:16:05;99653.48;;;13.02;77.33
58785;BME280;44557;51.862;19.378;2022-10-29T03:17:06;99654.24;;;13.01;77.43
58785;BME280;44557;51.862;19.378;2022-10-29T03:18:08;99653.63;;;12.98;77.45
58785;BME280;44557;51.862;19.378;2022-10-29T03:19:10;99651.14;;;13.02;77.46
58785;BME280;44557;51.862;19.378;2022-10-29T03:20:12;99655.34;;;12.97;77.41
58785;BME280;44557;51.862;19.378;2022-10-29T03:21:13;99652.85;;;12.90;77.87
58785;BME280;44557;51.862;19.378;2022-10-29T03:22:15;99651.86;;;12.91;77.89
58785;BME280;44557;51.862;19.378;2022-10-29T03:23:16;99647.65;;;12.90;78.18
58785;BME280;44557;51.862;19.378;2022-10-29T03:24:18;99654.00;;;12.98;77.67
58785;BME280;44557;51.862;19.378;2022-10-29T03:25:19;99646.01;;;12.94;77.70
58785;BME280;44557;51.862;19.378;2022-10-29T03:26:21;99648.82;;;12.95;77.78
58785;BME280;44557;51.862;19.378;2022-10-29T03:27:22;99647.77;;;13.03;77.47
58785;BME280;44557;51.862;19.378;2022-10-29T03:28:25;99648.73;;;13.06;77.23
58785;BME280;44557;51.862;19.378;2022-10-29T03:29:28;99644.56;;;12.99;77.40
58785;BME280;44557;51.862;19.378;2022-10-29T03:30:30;99641.57;;;13.07;77.51
58785;BME280;44557;51.862;19.378;2022-10-29T03:31:31;99635.95;;;13.07;77.36
58785;BME280;44557;51.862;19.378;2022-10-29T03:32:32;99635.86;;;13.04;77.23
58785;BME280;44557;51.862;19.378;2022-10-29T03:33:35;99633.42;;;13.07;77.10
58785;BME280;44557;51.862;19.378;2022-10-29T03:34:36;99628.31;;;13.08;77.30
58785;BME280;44557;51.862;19.378;2022-10-29T03:35:38;99627.91;;;13.08;77.44
58785;BME280;44557;51.862;19.378;2022-10-29T03:36:39;99629.89;;;13.11;77.04
58785;BME280;44557;51.862;19.378;2022-10-29T03:37:41;99623.98;;;13.06;77.31
58785;BME280;44557;51.862;19.378;2022-10-29T03:38:43;99619.86;;;13.11;77.42
58785;BME280;44557;51.862;19.378;2022-10-29T03:39:44;99613.31;;;13.08;77.31
58785;BME280;44557;51.862;19.378;2022-10-29T03:40:46;99614.95;;;13.08;77.15
58785;BME280;44557;51.862;19.378;2022-10-29T03:41:47;99614.63;;;13.16;77.11
58785;BME280;44557;51.862;19.378;2022-10-29T03:42:49;99607.61;;;13.17;77.09
58785;BME280;44557;51.862;19.378;2022-10-29T03:43:50;99610.03;;;13.16;76.96
58785;BME280;44557;51.862;19.378;2022-10-29T03:44:52;99608.73;;;13.15;76.92
58785;BME280;44557;51.862;19.378;2022-10-29T03:45:55;99608.33;;;13.14;76.88
58785;BME280;44557;51.862;19.378;2022-10-29T03:46:56;99607.22;;;13.17;76.95
58785;BME280;44557;51.862;19.378;2022-10-29T03:47:58;99602.48;;;13.14;77.03
58785;BME280;44557;51.862;19.378;2022-10-29T03:48:59;99600.66;;;13.14;76.79
58785;BME280;44557;51.862;19.378;2022-10-29T03:50:01;99604.73;;;13.17;76.84
58785;BME280;44557;51.862;19.378;2022-10-29T03:51:04;99604.55;;;13.18;76.89
58785;BME280;44557;51.862;19.378;2022-10-29T03:52:06;99604.96;;;13.22;76.80
58785;BME280;44557;51.862;19.378;2022-10-29T03:53:08;99609.75;;;13.23;76.87
58785;BME280;44557;51.862;19.378;2022-10-29T03:54:09;99618.70;;;13.25;76.66
58785;BME280;44557;51.862;19.378;2022-10-29T03:55:11;99621.86;;;13.31;76.39
58785;BME280;44557;51.862;19.378;2022-10-29T03:56:13;99625.70;;;13.33;76.36
58785;BME280;44557;51.862;19.378;2022-10-29T03:57:14;99621.70;;;13.31;76.39
58785;BME280;44557;51.862;19.378;2022-10-29T03:58:16;99617.73;;;13.30;76.42
58785;BME280;44557;51.862;19.378;2022-10-29T03:59:17;99617.95;;;13.23;76.56
58785;BME280;44557;51.862;19.378;2022-10-29T04:00:19;99615.08;;;13.22;76.79
58785;BME280;44557;51.862;19.378;2022-10-29T04:01:20;99615.49;;;13.26;76.62
58785;BME280;44557;51.862;19.378;2022-10-29T04:02:23;99611.94;;;13.26;76.63
58785;BME280;44557;51.862;19.378;2022-10-29T04:03:26;99617.53;;;13.22;76.78
58785;BME280;44557;51.862;19.378;2022-10-29T04:04:28;99608.95;;;13.20;76.77
58785;BME280;44557;51.862;19.378;2022-10-29T04:05:29;99603.50;;;13.20;76.95
58785;BME280;44557;51.862;19.378;2022-10-29T04:06:31;99597.08;;;13.13;77.22
58785;BME280;44557;51.862;19.378;2022-10-29T04:07:32;99595.27;;;13.20;76.89
58785;BME280;44557;51.862;19.378;2022-10-29T04:08:34;99593.48;;;13.21;76.90
58785;BME280;44557;51.862;19.378;2022-10-29T04:09:35;99598.81;;;13.19;77.09
58785;BME280;44557;51.862;19.378;2022-10-29T04:10:37;99601.43;;;13.23;76.83
58785;BME280;44557;51.862;19.378;2022-10-29T04:11:39;99602.05;;;13.16;77.34
58785;BME280;44557;51.862;19.378;2022-10-29T04:12:44;99606.75;;;13.14;77.21
58785;BME280;44557;51.862;19.378;2022-10-29T04:13:46;99611.33;;;13.17;77.39
58785;BME280;44557;51.862;19.378;2022-10-29T04:14:48;99614.27;;;13.18;77.05
58785;BME280;44557;51.862;19.378;2022-10-29T04:15:53;99612.20;;;13.24;76.90
58785;BME280;44557;51.862;19.378;2022-10-29T04:16:56;99616.15;;;13.24;76.87
58785;BME280;44557;51.862;19.378;2022-10-29T04:17:58;99618.38;;;13.12;77.39
58785;BME280;44557;51.862;19.378;2022-10-29T04:19:00;99613.07;;;13.14;77.52
58785;BME280;44557;51.862;19.378;2022-10-29T04:20:01;99614.20;;;13.16;77.20
58785;BME280;44557;51.862;19.378;2022-10-29T04:21:03;99614.48;;;13.17;77.18
58785;BME280;44557;51.862;19.378;2022-10-29T04:22:05;99608.17;;;13.11;77.59
58785;BME280;44557;51.862;19.378;2022-10-29T04:23:07;99608.81;;;13.12;77.33
58785;BME280;44557;51.862;19.378;2022-10-29T04:24:08;99608.48;;;13.08;77.32
58785;BME280;44557;51.862;19.378;2022-10-29T04:25:10;99609.96;;;13.10;77.46
58785;BME280;44557;51.862;19.378;2022-10-29T04:26:11;99612.39;;;13.13;77.45
58785;BME280;44557;51.862;19.378;2022-10-29T04:27:13;99613.41;;;13.12;77.40
58785;BME280;44557;51.862;19.378;2022-10-29T04:28:14;99616.63;;;13.11;77.35
58785;BME280;44557;51.862;19.378;2022-10-29T04:29:16;99615.36;;;13.11;77.52
58785;BME280;44557;51.862;19.378;2022-10-29T04:30:17;99614.30;;;13.07;77.70
58785;BME280;44557;51.862;19.378;2022-10-29T04:31:19;99614.04;;;13.06;77.74
58785;BME280;44557;51.862;19.378;2022-10-29T04:32:21;99612.56;;;13.10;77.64
58785;BME280;44557;51.862;19.378;2022-10-29T04:33:22;99614.16;;;13.05;77.74
58785;BME280;44557;51.862;19.378;2022-10-29T04:34:24;99613.63;;;13.05;77.83
58785;BME280;44557;51.862;19.378;2022-10-29T04:35:27;99613.63;;;13.00;77.93
58785;BME280;44557;51.862;19.378;2022-10-29T04:36:29;99616.54;;;13.05;77.67
58785;BME280;44557;51.862;19.378;2022-10-29T04:37:30;99617.44;;;13.09;77.50
58785;BME280;44557;51.862;19.378;2022-10-29T04:38:32;99621.10;;;13.07;77.57
58785;BME280;44557;51.862;19.378;2022-10-29T04:39:33;99622.39;;;13.00;77.92
58785;BME280;44557;51.862;19.378;2022-10-29T04:40:35;99625.76;;;13.02;77.85
58785;BME280;44557;51.862;19.378;2022-10-29T04:41:36;99626.92;;;13.02;78.13
58785;BME280;44557;51.862;19.378;2022-10-29T04:42:38;99632.92;;;13.04;77.95
58785;BME280;44557;51.862;19.378;2022-10-29T04:43:40;99631.72;;;13.00;78.10
58785;BME280;44557;51.862;19.378;2022-10-29T04:44:41;99634.67;;;12.98;78.16
58785;BME280;44557;51.862;19.378;2022-10-29T04:45:43;99631.73;;;13.01;77.99
58785;BME280;44557;51.862;19.378;2022-10-29T04:46:44;99632.15;;;12.99;78.02
58785;BME280;44557;51.862;19.378;2022-10-29T04:47:46;99633.48;;;12.95;78.12
58785;BME280;44557;51.862;19.378;2022-10-29T04:48:47;99632.54;;;12.92;78.27
58785;BME280;44557;51.862;19.378;2022-10-29T04:49:49;99633.15;;;12.91;78.44
58785;BME280;44557;51.862;19.378;2022-10-29T04:50:50;99631.20;;;12.86;78.42
58785;BME280;44557;51.862;19.378;2022-10-29T04:51:52;99631.83;;;12.89;78.53
58785;BME280;44557;51.862;19.378;2022-10-29T04:52:58;99626.59;;;12.98;78.23
58785;BME280;44557;51.862;19.378;2022-10-29T04:53:59;99627.34;;;12.99;78.22
58785;BME280;44557;51.862;19.378;2022-10-29T04:55:01;99630.31;;;12.98;78.14
58785;BME280;44557;51.862;19.378;2022-10-29T04:56:03;99637.28;;;12.99;78.11
58785;BME280;44557;51.862;19.378;2022-10-29T04:57:06;99636.41;;;12.99;78.11
58785;BME280;44557;51.862;19.378;2022-10-29T04:58:12;99643.20;;;12.95;78.21
58785;BME280;44557;51.862;19.378;2022-10-29T04:59:13;99648.46;;;13.00;78.35
58785;BME280;44557;51.862;19.378;2022-10-29T05:00:15;99651.29;;;13.02;78.06
58785;BME280;44557;51.862;19.378;2022-10-29T05:01:17;99658.14;;;13.04;77.93
58785;BME280;44557;51.862;19.378;2022-10-29T05:02:18;99660.90;;;13.01;78.28
58785;BME280;44557;51.862;19.378;2022-10-29T05:03:20;99661.44;;;13.05;78.16
58785;BME280;44557;51.862;19.378;2022-10-29T05:04:21;99660.63;;;13.05;78.00
58785;BME280;44557;51.862;19.378;2022-10-29T05:05:24;99663.05;;;13.07;77.84
58785;BME280;44557;51.862;19.378;2022-10-29T05:06:26;99661.33;;;13.07;77.86
58785;BME280;44557;51.862;19.378;2022-10-29T05:07:27;99657.61;;;13.10;78.00
58785;BME280;44557;51.862;19.378;2022-10-29T05:08:29;99660.69;;;13.10;77.83
58785;BME280;44557;51.862;19.378;2022-10-29T05:09:30;99654.75;;;13.04;77.88
58785;BME280;44557;51.862;19.378;2022-10-29T05:10:34;99651.42;;;12.98;78.16
58785;BME280;44557;51.862;19.378;2022-10-29T05:11:36;99647.79;;;13.04;78.14
58785;BME280;44557;51.862;19.378;2022-10-29T05:12:39;99650.05;;;13.05;78.03
58785;BME280;44557;51.862;19.378;2022-10-29T05:13:40;99653.55;;;13.09;77.81
58785;BME280;44557;51.862;19.378;2022-10-29T05:14:42;99656.59;;;13.05;77.92
58785;BME280;44557;51.862;19.378;2022-10-29T05:15:49;99658.97;;;13.02;78.31
58785;BME280;44557;51.862;19.378;2022-10-29T05:16:51;99654.50;;;13.01;78.20
58785;BME280;44557;51.862;19.378;2022-10-29T05:17:52;99649.49;;;13.07;77.88
58785;BME280;44557;51.862;19.378;2022-10-29T05:18:54;99648.45;;;13.07;77.99
58785;BME280;44557;51.862;19.378;2022-10-29T05:19:55;99649.71;;;13.04;78.07
58785;BME280;44557;51.862;19.378;2022-10-29T05:20:57;99649.57;;;13.00;78.24
58785;BME280;44557;51.862;19.378;2022-10-29T05:21:58;99651.38;;;13.00;78.34
58785;BME280;44557;51.862;19.378;2022-10-29T05:23:04;99652.98;;;12.97;78.36
58785;BME280;44557;51.862;19.378;2022-10-29T05:24:07;99653.13;;;12.94;78.75
58785;BME280;44557;51.862;19.378;2022-10-29T05:25:08;99654.04;;;12.95;78.52
58785;BME280;44557;51.862;19.378;2022-10-29T05:26:10;99654.84;;;13.02;78.54
58785;BME280;44557;51.862;19.378;2022-10-29T05:27:11;99654.52;;;12.99;78.33
58785;BME280;44557;51.862;19.378;2022-10-29T05:28:14;99653.34;;;13.02;78.22
58785;BME280;44557;51.862;19.378;2022-10-29T05:29:19;99653.90;;;12.97;78.52
58785;BME280;44557;51.862;19.378;2022-10-29T05:30:20;99654.80;;;12.97;78.75
58785;BME280;44557;51.862;19.378;2022-10-29T05:31:22;99653.30;;;12.89;78.85
58785;BME280;44557;51.862;19.378;2022-10-29T05:32:23;99651.02;;;12.86;79.28
58785;BME280;44557;51.862;19.378;2022-10-29T05:33:25;99651.16;;;12.91;78.72
58785;BME280;44557;51.862;19.378;2022-10-29T05:34:26;99651.01;;;12.95;78.57
58785;BME280;44557;51.862;19.378;2022-10-29T05:35:27;99648.77;;;12.93;78.76
58785;BME280;44557;51.862;19.378;2022-10-29T05:36:29;99651.55;;;12.88;79.00
58785;BME280;44557;51.862;19.378;2022-10-29T05:37:30;99650.95;;;12.89;78.89
58785;BME280;44557;51.862;19.378;2022-10-29T05:38:32;99648.73;;;12.92;78.91
58785;BME280;44557;51.862;19.378;2022-10-29T05:39:33;99646.33;;;12.93;78.81
58785;BME280;44557;51.862;19.378;2022-10-29T05:40:35;99647.49;;;12.93;78.75
58785;BME280;44557;51.862;19.378;2022-10-29T05:41:36;99646.98;;;12.95;78.77
58785;BME280;44557;51.862;19.378;2022-10-29T05:42:38;99650.28;;;12.91;78.79
58785;BME280;44557;51.862;19.378;2022-10-29T05:43:39;99648.16;;;12.92;78.96
58785;BME280;44557;51.862;19.378;2022-10-29T05:44:41;99650.46;;;12.92;78.89
58785;BME280;44557;51.862;19.378;2022-10-29T05:45:43;99650.70;;;12.89;79.04
58785;BME280;44557;51.862;19.378;2022-10-29T05:46:47;99652.58;;;12.88;79.19
58785;BME280;44557;51.862;19.378;2022-10-29T05:48:00;99656.11;;;12.91;79.07
58785;BME280;44557;51.862;19.378;2022-10-29T05:49:02;99655.20;;;12.95;79.07
58785;BME280;44557;51.862;19.378;2022-10-29T05:50:04;99656.54;;;12.95;78.91
58785;BME280;44557;51.862;19.378;2022-10-29T05:51:06;99656.19;;;12.96;78.70
58785;BME280;44557;51.862;19.378;2022-10-29T05:52:07;99652.39;;;12.99;78.57
58785;BME280;44557;51.862;19.378;2022-10-29T05:53:10;99654.66;;;12.89;78.93
58785;BME280;44557;51.862;19.378;2022-10-29T05:54:12;99657.62;;;12.87;79.32
58785;BME280;44557;51.862;19.378;2022-10-29T05:55:14;99657.65;;;12.95;78.95